Broadfield, United Kingdom
Current Conditions -  °F | °C
As of 8:20 PM on Monday 24 Nov 2014 (Local Time) from EGKK Reporting Station
Light Fog Light Fog  
Wind Chill: 34°   Ceiling: Unl
Heat Index: 34°   Visibility: 1.2mi
Dew Point: 34°   Wind: 0mph
Humidity: 100%   Direction: NA
Pressure: 30.33"   Gusts: NA
Location:  51.1°N, 0.21°W
Report Text: EGKK 242020Z 00000KT 2000 1100SW R08R/P1500 BCFG NSC 01/01 Q1027
Loading
Personal Weather Stations






























Interactive Weather Map New forecast layout! Learn more

10-Day Weather Forecast

Advertisements
Track Severe Weather on mobile